Time,TemperatureF,DewpointF,PressureIn,WindDirection,WindDirectionDegrees,WindSpeedMPH,WindSpeedGustMPH,Humidity,HourlyPrecipIn,Conditions,Clouds,dailyrainin,SoftwareType,DateUTC
2013-06-26 00:01:00,72.1,65.7,29.17,ESE,112,0.0,0.0,80,0.00,,,0.00,WUHU21623XXSP,2013-06-26 04:01:00,
2013-06-26 00:02:00,72.1,65.7,29.16,ESE,112,0.0,0.0,80,0.00,,,0.00,WUHU21623XXSP,2013-06-26 04:02:00,
2013-06-26 00:07:00,72.1,66.0,29.16,SE,135,0.0,0.0,81,0.00,,,0.00,WUHU21623XXSP,2013-06-26 04:07:00,
2013-06-26 00:12:00,72.1,66.0,29.16,SE,135,0.0,0.0,81,0.00,,,0.00,WUHU21623XXSP,2013-06-26 04:12:00,
2013-06-26 00:17:00,72.1,66.0,29.16,SE,135,0.0,0.0,81,0.00,,,0.00,WUHU21623XXSP,2013-06-26 04:17:00,
2013-06-26 00:22:00,72.1,66.0,29.16,SE,135,0.0,0.0,81,0.00,,,0.00,WUHU21623XXSP,2013-06-26 04:22:00,
2013-06-26 00:27:00,72.1,66.3,29.16,East,90,0.0,0.0,82,0.00,,,0.00,WUHU21623XXSP,2013-06-26 04:27:00,
2013-06-26 00:32:00,72.1,66.3,29.16,NE,45,0.0,0.0,82,0.00,,,0.00,WUHU21623XXSP,2013-06-26 04:32:00,
2013-06-26 00:37:00,72.1,66.3,29.15,NE,45,0.0,0.0,82,0.00,,,0.00,WUHU21623XXSP,2013-06-26 04:37:00,
2013-06-26 00:42:00,72.1,66.3,29.16,SSE,157,0.0,0.0,82,0.00,,,0.00,WUHU21623XXSP,2013-06-26 04:42:00,
2013-06-26 00:47:00,72.1,66.3,29.16,South,180,0.0,0.0,82,0.00,,,0.00,WUHU21623XXSP,2013-06-26 04:47:00,
2013-06-26 00:52:00,72.0,66.2,29.16,South,180,0.0,0.0,82,0.00,,,0.00,WUHU21623XXSP,2013-06-26 04:52:00,
2013-06-26 00:57:00,72.0,66.2,29.16,South,180,0.0,0.0,82,0.00,,,0.00,WUHU21623XXSP,2013-06-26 04:57:00,
2013-06-26 01:02:00,72.0,66.2,29.16,SSE,157,0.0,0.0,82,0.00,,,0.00,WUHU21623XXSP,2013-06-26 05:02:00,
2013-06-26 01:07:00,72.0,66.2,29.16,SSE,157,0.0,0.0,82,0.00,,,0.00,WUHU21623XXSP,2013-06-26 05:07:00,
2013-06-26 01:12:00,72.0,66.2,29.16,SSE,157,0.0,0.0,82,0.00,,,0.00,WUHU21623XXSP,2013-06-26 05:12:00,
2013-06-26 01:17:00,72.0,66.2,29.16,SSE,157,0.0,0.0,82,0.00,,,0.00,WUHU21623XXSP,2013-06-26 05:17:00,
2013-06-26 01:22:00,72.0,66.2,29.16,SSE,157,0.0,0.0,82,0.00,,,0.00,WUHU21623XXSP,2013-06-26 05:22:00,
2013-06-26 09:14:00,73.0,67.9,29.12,East,90,2.0,2.0,84,0.00,,,0.00,WUHU21623XXSP,2013-06-26 13:14:00,
2013-06-26 09:19:00,73.0,67.9,29.12,SSE,157,2.5,2.5,84,0.00,,,0.00,WUHU21623XXSP,2013-06-26 13:19:00,
2013-06-26 09:24:00,73.9,68.8,29.12,SE,135,0.0,2.5,83,0.00,,,0.00,WUHU21623XXSP,2013-06-26 13:24:00,
2013-06-26 09:29:00,74.1,68.3,29.12,SSE,157,0.0,2.5,82,0.00,,,0.00,WUHU21623XXSP,2013-06-26 13:29:00,
2013-06-26 09:34:00,74.3,68.5,29.12,ESE,112,0.9,0.9,82,0.00,,,0.00,WUHU21623XXSP,2013-06-26 13:34:00,
2013-06-26 09:39:00,74.7,68.5,29.12,SE,135,0.0,0.9,81,0.00,,,0.00,WUHU21623XXSP,2013-06-26 13:39:00,
2013-06-26 09:44:00,74.8,68.7,29.13,SW,225,0.9,0.9,81,0.00,,,0.00,WUHU21623XXSP,2013-06-26 13:44:00,
2013-06-26 09:49:00,75.0,68.9,29.13,South,180,0.0,0.9,81,0.00,,,0.00,WUHU21623XXSP,2013-06-26 13:49:00,
2013-06-26 09:54:00,75.2,69.4,29.13,SW,225,0.0,0.0,82,0.00,,,0.00,WUHU21623XXSP,2013-06-26 13:54:00,
2013-06-26 09:59:00,75.4,69.2,29.13,SSW,202,2.5,2.5,81,0.00,,,0.00,WUHU21623XXSP,2013-06-26 13:59:00,
2013-06-26 10:04:00,75.6,69.0,29.13,SSW,202,0.0,4.0,80,0.00,,,0.00,WUHU21623XXSP,2013-06-26 14:04:00,
2013-06-26 10:09:00,75.6,69.4,29.13,SE,135,0.0,4.0,81,0.00,,,0.00,WUHU21623XXSP,2013-06-26 14:09:00,
2013-06-26 10:14:00,75.7,69.4,29.13,SE,135,0.0,1.8,81,0.00,,,0.00,WUHU21623XXSP,2013-06-26 14:14:00,
2013-06-26 10:19:00,75.9,69.4,29.13,SSW,202,0.0,3.1,80,0.00,,,0.00,WUHU21623XXSP,2013-06-26 14:19:00,
2013-06-26 10:24:00,76.1,69.5,29.12,SW,225,0.0,3.1,80,0.00,,,0.00,WUHU21623XXSP,2013-06-26 14:24:00,
2013-06-26 10:29:00,76.6,70.0,29.12,SW,225,0.0,2.5,80,0.00,,,0.00,WUHU21623XXSP,2013-06-26 14:29:00,
2013-06-26 10:34:00,77.0,70.3,29.12,WSW,247,0.0,3.4,80,0.00,,,0.00,WUHU21623XXSP,2013-06-26 14:34:00,
2013-06-26 10:39:00,77.5,70.9,29.11,East,90,1.8,3.4,80,0.00,,,0.00,WUHU21623XXSP,2013-06-26 14:39:00,
2013-06-26 10:44:00,77.7,70.7,29.12,WNW,292,1.8,1.8,79,0.00,,,0.00,WUHU21623XXSP,2013-06-26 14:44:00,
2013-06-26 10:49:00,77.9,70.5,29.12,ESE,112,0.0,1.8,78,0.00,,,0.00,WUHU21623XXSP,2013-06-26 14:49:00,
2013-06-26 10:54:00,78.4,71.0,29.11,South,180,1.3,2.0,78,0.00,,,0.00,WUHU21623XXSP,2013-06-26 14:54:00,
2013-06-26 10:59:00,79.5,71.7,29.11,NW,315,3.6,3.6,77,0.00,,,0.00,WUHU21623XXSP,2013-06-26 14:59:00,
2013-06-26 11:04:00,79.5,71.3,29.10,WNW,292,0.0,3.6,76,0.00,,,0.00,WUHU21623XXSP,2013-06-26 15:04:00,
2013-06-26 11:09:00,79.3,71.1,29.10,SSW,202,0.0,0.9,76,0.00,,,0.00,WUHU21623XXSP,2013-06-26 15:09:00,
2013-06-26 11:14:00,79.0,70.3,29.10,SSW,202,0.0,4.5,75,0.00,,,0.00,WUHU21623XXSP,2013-06-26 15:14:00,
2013-06-26 11:19:00,79.0,70.7,29.10,East,90,0.0,4.5,76,0.00,,,0.00,WUHU21623XXSP,2013-06-26 15:19:00,
2013-06-26 11:24:00,79.0,71.1,29.10,WSW,247,0.9,0.9,77,0.00,,,0.00,WUHU21623XXSP,2013-06-26 15:24:00,
2013-06-26 11:29:00,79.2,70.9,29.09,SSE,157,3.8,3.8,76,0.00,,,0.00,WUHU21623XXSP,2013-06-26 15:29:00,
2013-06-26 11:34:00,79.3,71.1,29.09,SSW,202,2.5,3.8,76,0.00,,,0.00,WUHU21623XXSP,2013-06-26 15:34:00,
2013-06-26 11:39:00,79.7,71.5,29.09,West,270,1.1,2.5,76,0.00,,,0.00,WUHU21623XXSP,2013-06-26 15:39:00,
2013-06-26 11:44:00,80.6,72.0,29.09,ENE,67,12.3,12.3,75,0.00,,,0.00,WUHU21623XXSP,2013-06-26 15:44:00,
2013-06-26 11:49:00,81.0,71.9,29.09,West,270,1.1,12.3,74,0.00,,,0.00,WUHU21623XXSP,2013-06-26 15:49:00,
2013-06-26 11:54:00,80.6,71.2,29.09,North,0,2.2,5.8,73,0.00,,,0.00,WUHU21623XXSP,2013-06-26 15:54:00,
2013-06-26 11:59:00,80.4,71.4,29.08,WSW,247,2.5,3.6,75,0.00,,,0.00,WUHU21623XXSP,2013-06-26 15:59:00,
2013-06-26 12:05:00,80.8,72.1,29.08,South,180,2.5,2.5,75,0.00,,,0.00,WUHU21623XXSP,2013-06-26 16:05:00,
2013-06-26 12:10:00,81.3,72.2,29.08,SW,225,3.8,3.8,74,0.00,,,0.00,WUHU21623XXSP,2013-06-26 16:10:00,
2013-06-26 12:15:00,82.0,72.6,29.08,NW,315,0.0,3.8,74,0.00,,,0.00,WUHU21623XXSP,2013-06-26 16:15:00,
2013-06-26 12:20:00,82.6,73.1,29.08,SW,225,0.0,4.3,74,0.00,,,0.00,WUHU21623XXSP,2013-06-26 16:20:00,
2013-06-26 12:25:00,83.1,73.1,29.08,South,180,0.9,4.3,72,0.00,,,0.00,WUHU21623XXSP,2013-06-26 16:25:00,
2013-06-26 12:30:00,83.1,72.7,29.08,West,270,3.6,3.8,71,0.00,,,0.00,WUHU21623XXSP,2013-06-26 16:30:00,
2013-06-26 12:35:00,83.5,73.1,29.08,SSW,202,6.3,6.3,71,0.00,,,0.00,WUHU21623XXSP,2013-06-26 16:35:00,
2013-06-26 12:40:00,83.5,73.1,29.08,WSW,247,0.0,6.3,71,0.00,,,0.00,WUHU21623XXSP,2013-06-26 16:40:00,
2013-06-26 12:45:00,83.8,73.0,29.08,NW,315,0.0,6.3,70,0.00,,,0.00,WUHU21623XXSP,2013-06-26 16:45:00,
2013-06-26 12:50:00,84.0,73.6,29.08,WSW,247,1.3,1.3,71,0.00,,,0.00,WUHU21623XXSP,2013-06-26 16:50:00,
2013-06-26 12:55:00,84.4,73.6,29.07,West,270,3.1,3.1,70,0.00,,,0.00,WUHU21623XXSP,2013-06-26 16:55:00,
2013-06-26 13:00:00,84.4,73.6,29.07,West,270,3.1,3.1,70,0.00,,,0.00,WUHU21623XXSP,2013-06-26 17:00:00,
2013-06-26 13:05:00,84.7,73.9,29.07,South,180,0.0,3.1,70,0.00,,,0.00,WUHU21623XXSP,2013-06-26 17:05:00,
2013-06-26 13:10:00,84.9,74.1,29.07,WSW,247,6.9,6.9,70,0.00,,,0.00,WUHU21623XXSP,2013-06-26 17:10:00,
2013-06-26 13:15:00,84.7,73.9,29.07,SW,225,2.2,6.9,70,0.00,,,0.00,WUHU21623XXSP,2013-06-26 17:15:00,
2013-06-26 13:20:00,84.0,72.8,29.07,NNW,337,0.0,2.2,69,0.00,,,0.00,WUHU21623XXSP,2013-06-26 17:20:00,
2013-06-26 13:25:00,82.9,72.5,29.07,West,270,0.0,2.2,71,0.00,,,0.00,WUHU21623XXSP,2013-06-26 17:25:00,
2013-06-26 13:30:00,82.4,72.0,29.07,WSW,247,0.0,4.0,71,0.00,,,0.00,WUHU21623XXSP,2013-06-26 17:30:00,
2013-06-26 13:35:00,82.6,73.0,29.07,South,180,4.3,4.3,73,0.00,,,0.00,WUHU21623XXSP,2013-06-26 17:35:00,
2013-06-26 13:40:00,83.3,73.7,29.06,South,180,2.7,4.3,73,0.00,,,0.00,WUHU21623XXSP,2013-06-26 17:40:00,
2013-06-26 13:45:00,83.8,73.4,29.06,SW,225,6.0,6.0,71,0.00,,,0.00,WUHU21623XXSP,2013-06-26 17:45:00,
2013-06-26 13:50:00,84.0,73.2,29.06,WNW,292,2.0,6.0,70,0.00,,,0.00,WUHU21623XXSP,2013-06-26 17:50:00,
2013-06-26 13:55:00,84.6,74.2,29.05,NE,45,1.8,3.8,69,0.00,,,0.00,WUHU21623XXSP,2013-06-26 17:55:00,
2013-06-26 14:00:00,84.4,72.7,29.06,WSW,247,2.2,3.8,68,0.00,,,0.00,WUHU21623XXSP,2013-06-26 18:00:00,
2013-06-26 14:05:00,84.0,72.8,29.05,SSW,202,4.7,7.2,69,0.00,,,0.00,WUHU21623XXSP,2013-06-26 18:05:00,
2013-06-26 14:10:00,84.0,72.8,29.05,West,270,0.0,7.2,69,0.00,,,0.00,WUHU21623XXSP,2013-06-26 18:10:00,
2013-06-26 14:15:00,84.2,73.0,29.05,NW,315,4.5,4.7,69,0.00,,,0.00,WUHU21623XXSP,2013-06-26 18:15:00,
2013-06-26 14:20:00,84.4,72.7,29.05,SSE,157,0.0,4.5,68,0.00,,,0.00,WUHU21623XXSP,2013-06-26 18:20:00,
2013-06-26 14:25:00,84.6,73.3,29.05,NNW,337,0.0,6.0,69,0.00,,,0.00,WUHU21623XXSP,2013-06-26 18:25:00,
2013-06-26 14:30:00,84.9,73.2,29.05,South,180,3.6,6.0,68,0.00,,,0.00,WUHU21623XXSP,2013-06-26 18:30:00,
2013-06-26 14:35:00,85.3,73.4,29.05,South,180,1.8,4.7,68,0.00,,,0.00,WUHU21623XXSP,2013-06-26 18:35:00,
2013-06-26 14:40:00,85.6,73.4,29.04,SSE,157,6.3,6.3,67,0.00,,,0.00,WUHU21623XXSP,2013-06-26 18:40:00,
2013-06-26 14:45:00,85.6,73.4,29.04,SSE,157,2.9,6.3,67,0.00,,,0.00,WUHU21623XXSP,2013-06-26 18:45:00,
2013-06-26 14:50:00,85.6,73.4,29.04,SSE,157,0.0,6.3,67,0.00,,,0.00,WUHU21623XXSP,2013-06-26 18:50:00,
2013-06-26 14:55:00,85.1,72.5,29.03,WSW,247,0.0,4.7,66,0.00,,,0.00,WUHU21623XXSP,2013-06-26 18:55:00,
2013-06-26 15:00:00,84.7,72.3,29.03,WNW,292,3.1,4.7,66,0.00,,,0.00,WUHU21623XXSP,2013-06-26 19:00:00,
2013-06-26 15:05:00,84.6,72.4,29.03,WSW,247,2.5,3.1,67,0.00,,,0.00,WUHU21623XXSP,2013-06-26 19:05:00,
2013-06-26 15:10:00,84.9,72.3,29.02,WSW,247,0.0,3.1,66,0.00,,,0.00,WUHU21623XXSP,2013-06-26 19:10:00,
2013-06-26 15:15:00,85.3,72.6,29.02,West,270,0.0,2.2,66,0.00,,,0.00,WUHU21623XXSP,2013-06-26 19:15:00,
2013-06-26 15:20:00,85.6,72.1,29.02,WNW,292,0.0,2.2,64,0.00,,,0.00,WUHU21623XXSP,2013-06-26 19:20:00,
2013-06-26 15:25:00,85.5,71.0,29.02,West,270,1.1,5.1,62,0.00,,,0.00,WUHU21623XXSP,2013-06-26 19:25:00,
2013-06-26 15:30:00,85.1,70.6,29.02,NW,315,0.0,5.1,62,0.00,,,0.00,WUHU21623XXSP,2013-06-26 19:30:00,
2013-06-26 15:35:00,84.4,70.1,29.03,SSW,202,0.0,4.3,63,0.00,,,0.00,WUHU21623XXSP,2013-06-26 19:35:00,
2013-06-26 15:40:00,83.8,70.3,29.03,West,270,4.5,5.6,64,0.00,,,0.00,WUHU21623XXSP,2013-06-26 19:40:00,
2013-06-26 15:45:00,83.3,70.3,29.03,SSE,157,1.8,5.6,65,0.00,,,0.00,WUHU21623XXSP,2013-06-26 19:45:00,
2013-06-26 15:50:00,82.9,69.9,29.03,South,180,0.0,1.8,65,0.00,,,0.00,WUHU21623XXSP,2013-06-26 19:50:00,
2013-06-26 15:55:00,82.8,70.3,29.03,West,270,1.1,1.8,65,0.00,,,0.00,WUHU21623XXSP,2013-06-26 19:55:00,
2013-06-26 16:00:00,82.6,70.0,29.03,North,0,2.5,2.5,66,0.00,,,0.00,WUHU21623XXSP,2013-06-26 20:00:00,
2013-06-26 16:05:00,82.6,70.9,29.03,WSW,247,5.1,5.1,68,0.00,,,0.00,WUHU21623XXSP,2013-06-26 20:05:00,
2013-06-26 16:11:00,82.6,70.9,29.03,WNW,292,0.0,5.1,68,0.00,,,0.00,WUHU21623XXSP,2013-06-26 20:11:00,
2013-06-26 16:16:00,82.8,70.6,29.03,West,270,0.0,5.1,67,0.00,,,0.00,WUHU21623XXSP,2013-06-26 20:16:00,
2013-06-26 16:21:00,83.1,71.0,29.02,NW,315,2.2,2.2,67,0.00,,,0.00,WUHU21623XXSP,2013-06-26 20:21:00,
2013-06-26 16:26:00,84.0,71.4,29.02,NW,315,2.0,3.1,66,0.00,,,0.00,WUHU21623XXSP,2013-06-26 20:26:00,
2013-06-26 16:31:00,84.0,71.0,29.02,West,270,2.9,3.1,65,0.00,,,0.00,WUHU21623XXSP,2013-06-26 20:31:00,
2013-06-26 16:36:00,83.5,70.9,29.02,West,270,0.0,2.9,66,0.00,,,0.00,WUHU21623XXSP,2013-06-26 20:36:00,
2013-06-26 16:41:00,82.9,70.5,29.01,SSW,202,0.0,0.9,66,0.00,,,0.00,WUHU21623XXSP,2013-06-26 20:41:00,
2013-06-26 16:46:00,82.6,70.4,29.00,WSW,247,0.0,0.0,67,0.00,,,0.00,WUHU21623XXSP,2013-06-26 20:46:00,
2013-06-26 16:51:00,82.0,70.5,29.01,WNW,292,0.0,0.0,68,0.00,,,0.00,WUHU21623XXSP,2013-06-26 20:51:00,
2013-06-26 16:56:00,81.7,69.6,29.00,WNW,292,1.8,1.8,67,0.00,,,0.00,WUHU21623XXSP,2013-06-26 20:56:00,
2013-06-26 17:01:00,81.5,69.4,29.01,WSW,247,3.8,3.8,67,0.00,,,0.00,WUHU21623XXSP,2013-06-26 21:01:00,
2013-06-26 17:06:00,81.1,69.1,29.00,WSW,247,0.0,3.8,67,0.00,,,0.00,WUHU21623XXSP,2013-06-26 21:06:00,
2013-06-26 17:11:00,81.0,69.0,29.01,West,270,0.0,3.1,67,0.00,,,0.00,WUHU21623XXSP,2013-06-26 21:11:00,
2013-06-26 17:16:00,80.8,68.8,29.00,SSE,157,3.1,3.1,68,0.00,,,0.00,WUHU21623XXSP,2013-06-26 21:16:00,
2013-06-26 17:21:00,80.8,69.2,29.00,WSW,247,0.0,3.1,68,0.00,,,0.00,WUHU21623XXSP,2013-06-26 21:21:00,
2013-06-26 17:26:00,80.6,69.1,29.00,SSW,202,0.0,0.0,68,0.00,,,0.00,WUHU21623XXSP,2013-06-26 21:26:00,
2013-06-26 17:31:00,80.4,68.5,29.01,WSW,247,0.0,0.0,67,0.00,,,0.00,WUHU21623XXSP,2013-06-26 21:31:00,
2013-06-26 17:36:00,80.2,68.3,29.01,West,270,0.0,0.0,67,0.00,,,0.00,WUHU21623XXSP,2013-06-26 21:36:00,
2013-06-26 17:41:00,79.9,68.4,29.01,West,270,0.0,0.0,68,0.00,,,0.00,WUHU21623XXSP,2013-06-26 21:41:00,
2013-06-26 17:46:00,79.9,68.8,29.01,West,270,0.0,0.0,69,0.00,,,0.00,WUHU21623XXSP,2013-06-26 21:46:00,
2013-06-26 17:51:00,79.5,68.6,29.01,NW,315,0.0,0.0,69,0.00,,,0.00,WUHU21623XXSP,2013-06-26 21:51:00,
2013-06-26 17:56:00,79.5,68.9,29.01,SW,225,0.0,0.0,70,0.00,,,0.00,WUHU21623XXSP,2013-06-26 21:56:00,
2013-06-26 18:01:00,79.3,68.7,29.01,SSW,202,0.0,0.0,70,0.00,,,0.00,WUHU21623XXSP,2013-06-26 22:01:00,
2013-06-26 18:06:00,79.3,69.1,29.01,West,270,0.0,0.0,71,0.00,,,0.00,WUHU21623XXSP,2013-06-26 22:06:00,
2013-06-26 18:11:00,79.9,69.3,29.01,SW,225,0.0,0.0,71,0.00,,,0.00,WUHU21623XXSP,2013-06-26 22:11:00,
2013-06-26 18:16:00,80.1,69.8,29.01,West,270,0.0,0.0,70,0.00,,,0.00,WUHU21623XXSP,2013-06-26 22:16:00,
2013-06-26 18:21:00,80.2,69.6,29.01,WNW,292,0.0,0.0,70,0.00,,,0.00,WUHU21623XXSP,2013-06-26 22:21:00,
2013-06-26 18:26:00,80.4,69.8,29.01,SSW,202,0.0,0.0,70,0.00,,,0.00,WUHU21623XXSP,2013-06-26 22:26:00,
2013-06-26 18:31:00,80.6,69.5,29.01,South,180,0.0,2.9,69,0.00,,,0.00,WUHU21623XXSP,2013-06-26 22:31:00,
2013-06-26 18:36:00,80.8,69.1,29.01,SE,135,0.0,2.9,68,0.00,,,0.00,WUHU21623XXSP,2013-06-26 22:36:00,
2013-06-26 18:41:00,80.8,69.2,29.01,WSW,247,0.0,0.0,67,0.00,,,0.00,WUHU21623XXSP,2013-06-26 22:41:00,
2013-06-26 18:46:00,80.4,68.5,29.01,SSE,157,0.0,0.0,67,0.00,,,0.00,WUHU21623XXSP,2013-06-26 22:46:00,
2013-06-26 18:51:00,80.4,68.5,29.01,SW,225,2.7,2.7,67,0.00,,,0.00,WUHU21623XXSP,2013-06-26 22:51:00,
2013-06-26 18:56:00,80.2,68.3,29.01,WSW,247,0.0,4.5,67,0.00,,,0.00,WUHU21623XXSP,2013-06-26 22:56:00,
2013-06-26 19:01:00,79.9,67.9,29.02,WSW,247,0.0,4.5,67,0.00,,,0.00,WUHU21623XXSP,2013-06-26 23:01:00,
2013-06-26 19:06:00,79.5,68.0,29.02,WSW,247,0.0,0.0,68,0.00,,,0.00,WUHU21623XXSP,2013-06-26 23:06:00,
2013-06-26 19:11:00,79.3,67.8,29.02,West,270,0.0,0.0,68,0.00,,,0.00,WUHU21623XXSP,2013-06-26 23:11:00,
2013-06-26 19:16:00,79.0,67.5,29.01,West,270,0.0,0.0,68,0.00,,,0.00,WUHU21623XXSP,2013-06-26 23:16:00,
2013-06-26 19:21:00,78.6,67.3,29.01,West,270,0.0,0.0,68,0.00,,,0.00,WUHU21623XXSP,2013-06-26 23:21:00,
2013-06-26 19:26:00,78.6,67.1,29.01,West,270,0.0,0.0,68,0.00,,,0.00,WUHU21623XXSP,2013-06-26 23:26:00,
2013-06-26 19:31:00,78.6,67.6,29.01,WSW,247,0.0,0.0,69,0.00,,,0.00,WUHU21623XXSP,2013-06-26 23:31:00,
2013-06-26 19:36:00,78.6,67.6,29.00,WNW,292,0.0,0.0,69,0.00,,,0.00,WUHU21623XXSP,2013-06-26 23:36:00,
2013-06-26 19:41:00,78.6,67.6,29.00,WSW,247,0.0,0.0,69,0.00,,,0.00,WUHU21623XXSP,2013-06-26 23:41:00,
2013-06-26 19:46:00,78.6,67.6,29.01,WNW,292,0.0,0.0,69,0.00,,,0.00,WUHU21623XXSP,2013-06-26 23:46:00,
2013-06-26 19:51:00,78.6,67.6,29.01,West,270,0.0,0.0,69,0.00,,,0.00,WUHU21623XXSP,2013-06-26 23:51:00,
2013-06-26 19:56:00,78.4,67.6,29.00,West,270,0.0,0.0,69,0.00,,,0.00,WUHU21623XXSP,2013-06-26 23:56:00,
2013-06-26 20:01:00,78.1,67.1,29.00,West,270,0.0,0.0,69,0.00,,,0.00,WUHU21623XXSP,2013-06-27 00:01:00,
2013-06-26 20:06:00,78.1,67.5,29.00,West,270,0.0,0.0,70,0.00,,,0.00,WUHU21623XXSP,2013-06-27 00:06:00,
2013-06-26 20:11:00,78.1,67.5,29.00,West,270,0.0,0.0,70,0.00,,,0.00,WUHU21623XXSP,2013-06-27 00:11:00,
2013-06-26 20:16:00,77.9,67.9,29.00,West,270,0.0,0.0,71,0.00,,,0.00,WUHU21623XXSP,2013-06-27 00:16:00,
2013-06-26 20:21:00,77.7,68.0,29.00,West,270,0.0,0.0,72,0.00,,,0.00,WUHU21623XXSP,2013-06-27 00:21:00,
2013-06-26 20:26:00,77.5,67.8,29.00,West,270,0.0,0.0,72,0.00,,,0.00,WUHU21623XXSP,2013-06-27 00:26:00,
2013-06-26 20:31:00,77.5,68.2,29.00,West,270,0.0,0.0,73,0.00,,,0.00,WUHU21623XXSP,2013-06-27 00:31:00,
2013-06-26 20:36:00,77.4,68.4,29.00,West,270,0.0,0.0,74,0.00,,,0.00,WUHU21623XXSP,2013-06-27 00:36:00,
2013-06-26 20:41:00,77.2,68.4,29.00,West,270,0.0,0.0,74,0.00,,,0.00,WUHU21623XXSP,2013-06-27 00:41:00,
2013-06-26 20:46:00,77.2,68.2,29.00,West,270,0.0,0.0,74,0.00,,,0.00,WUHU21623XXSP,2013-06-27 00:46:00,
2013-06-26 20:51:00,77.2,68.6,29.00,West,270,0.0,0.0,75,0.00,,,0.00,WUHU21623XXSP,2013-06-27 00:51:00,
2013-06-26 20:56:00,76.8,69.0,29.00,West,270,0.0,0.0,77,0.00,,,0.00,WUHU21623XXSP,2013-06-27 00:56:00,
2013-06-26 21:01:00,76.8,69.0,29.00,West,270,0.0,0.0,77,0.00,,,0.00,WUHU21623XXSP,2013-06-27 01:01:00,
2013-06-26 21:07:00,76.8,69.0,29.00,West,270,0.0,0.0,77,0.00,,,0.00,WUHU21623XXSP,2013-06-27 01:07:00,
2013-06-26 21:12:00,76.6,68.9,29.00,West,270,0.0,0.0,77,0.00,,,0.00,WUHU21623XXSP,2013-06-27 01:12:00,
2013-06-26 21:17:00,76.8,69.0,29.00,West,270,0.0,0.0,77,0.00,,,0.00,WUHU21623XXSP,2013-06-27 01:17:00,
2013-06-26 21:22:00,76.6,68.9,28.99,West,270,0.0,0.0,77,0.00,,,0.00,WUHU21623XXSP,2013-06-27 01:22:00,
2013-06-26 21:27:00,76.5,69.1,28.99,West,270,0.0,0.0,78,0.00,,,0.00,WUHU21623XXSP,2013-06-27 01:27:00,
2013-06-26 21:32:00,76.3,68.5,28.99,West,270,0.0,0.0,77,0.00,,,0.00,WUHU21623XXSP,2013-06-27 01:32:00,
2013-06-26 21:37:00,76.3,68.5,28.99,West,270,0.0,0.0,77,0.00,,,0.00,WUHU21623XXSP,2013-06-27 01:37:00,
2013-06-26 21:42:00,76.3,68.9,28.98,West,270,0.0,0.0,78,0.00,,,0.00,WUHU21623XXSP,2013-06-27 01:42:00,
2013-06-26 21:47:00,76.1,68.8,28.99,West,270,0.0,0.0,78,0.00,,,0.00,WUHU21623XXSP,2013-06-27 01:47:00,
2013-06-26 21:52:00,75.9,68.2,28.99,West,270,0.0,0.0,77,0.00,,,0.00,WUHU21623XXSP,2013-06-27 01:52:00,
2013-06-26 21:57:00,75.9,68.2,29.00,West,270,0.0,0.0,77,0.00,,,0.00,WUHU21623XXSP,2013-06-27 01:57:00,
2013-06-26 22:02:00,75.9,68.2,28.99,West,270,0.0,0.0,78,0.00,,,0.00,WUHU21623XXSP,2013-06-27 02:02:00,
2013-06-26 22:07:00,75.7,68.0,28.99,West,270,0.0,0.0,78,0.00,,,0.00,WUHU21623XXSP,2013-06-27 02:07:00,
2013-06-26 22:12:00,75.7,68.4,28.99,West,270,0.0,0.0,78,0.00,,,0.00,WUHU21623XXSP,2013-06-27 02:12:00,
2013-06-26 22:17:00,75.6,68.3,28.98,West,270,0.0,0.0,78,0.00,,,0.00,WUHU21623XXSP,2013-06-27 02:17:00,
2013-06-26 22:22:00,75.4,68.1,28.99,West,270,0.0,0.0,79,0.00,,,0.00,WUHU21623XXSP,2013-06-27 02:22:00,
2013-06-26 22:27:00,75.0,68.1,29.00,West,270,0.0,0.0,79,0.00,,,0.00,WUHU21623XXSP,2013-06-27 02:27:00,
2013-06-26 22:32:00,75.0,68.1,29.00,West,270,0.0,0.0,79,0.00,,,0.00,WUHU21623XXSP,2013-06-27 02:32:00,
2013-06-26 22:37:00,75.0,68.1,29.00,West,270,0.0,0.0,79,0.00,,,0.00,WUHU21623XXSP,2013-06-27 02:37:00,
2013-06-26 22:42:00,74.8,68.0,29.00,West,270,0.0,0.0,79,0.00,,,0.00,WUHU21623XXSP,2013-06-27 02:42:00,
2013-06-26 22:47:00,74.8,68.0,29.01,West,270,0.0,0.0,79,0.00,,,0.00,WUHU21623XXSP,2013-06-27 02:47:00,
2013-06-26 22:52:00,74.8,68.4,29.01,SSW,202,0.0,0.0,80,0.00,,,0.00,WUHU21623XXSP,2013-06-27 02:52:00,
2013-06-26 22:57:00,74.8,68.4,29.01,WSW,247,0.0,0.0,80,0.00,,,0.00,WUHU21623XXSP,2013-06-27 02:57:00,
2013-06-26 23:02:00,74.8,68.4,29.02,SE,135,0.0,0.0,80,0.00,,,0.00,WUHU21623XXSP,2013-06-27 03:02:00,
2013-06-26 23:07:00,74.8,68.7,29.03,SSW,202,0.0,0.0,81,0.00,,,0.00,WUHU21623XXSP,2013-06-27 03:07:00,
2013-06-26 23:12:00,74.8,68.7,29.02,SW,225,0.0,0.0,81,0.00,,,0.00,WUHU21623XXSP,2013-06-27 03:12:00,
2013-06-26 23:17:00,74.8,68.7,29.01,SW,225,0.0,0.0,81,0.00,,,0.00,WUHU21623XXSP,2013-06-27 03:17:00,
2013-06-26 23:22:00,74.5,68.3,29.02,WSW,247,0.0,0.0,82,0.00,,,0.00,WUHU21623XXSP,2013-06-27 03:22:00,
2013-06-26 23:27:00,74.5,68.7,29.02,West,270,0.0,0.0,82,0.00,,,0.00,WUHU21623XXSP,2013-06-27 03:27:00,
2013-06-26 23:32:00,74.5,69.0,29.03,SSW,202,0.0,0.0,83,0.00,,,0.00,WUHU21623XXSP,2013-06-27 03:32:00,
2013-06-26 23:37:00,74.3,68.8,29.02,West,270,0.0,0.0,83,0.00,,,0.00,WUHU21623XXSP,2013-06-27 03:37:00,
2013-06-26 23:42:00,74.1,68.7,29.01,WNW,292,0.0,0.0,83,0.00,,,0.00,WUHU21623XXSP,2013-06-27 03:42:00,
2013-06-26 23:47:00,74.1,69.0,29.01,SW,225,0.0,1.6,84,0.00,,,0.00,WUHU21623XXSP,2013-06-27 03:47:00,
2013-06-26 23:52:00,73.9,68.8,29.02,West,270,0.0,1.6,84,0.00,,,0.00,WUHU21623XXSP,2013-06-27 03:52:00,
2013-06-26 23:57:00,73.8,68.6,29.01,West,270,0.0,0.0,85,0.00,,,0.00,WUHU21623XXSP,2013-06-27 03:57:00,